Time;durP1;ratioP1;P1;durP2;ratioP2;P2;SDS_P1;SDS_P2;PMS_P1;PMS_P2;Temp;Humidity;BMP_temperature;BMP_pressure;BME280_temperature;BME280_humidity;BME280_pressure;Samples;Min_cycle;Max_cycle;Signal;HPM_P1;HPM_P2
2023/07/27 00:01:05;;;;;;;3.42;1.73;;;;;;;;;;5062321;28;20056;-74
2023/07/27 00:03:35;;;;;;;3.78;1.58;;;;;;;;;;5063197;28;20044;-73
2023/07/27 00:06:06;;;;;;;2.75;1.48;;;;;;;;;;5059954;28;20412;-75
2023/07/27 00:08:36;;;;;;;2.75;1.30;;;;;;;;;;5061977;28;20068;-76
2023/07/27 00:11:09;;;;;;;3.03;1.50;;;;;;;;;;5062087;28;20032;-74
2023/07/27 00:13:40;;;;;;;2.38;1.70;;;;;;;;;;5062096;28;20044;-77
2023/07/27 00:16:10;;;;;;;1.92;1.23;;;;;;;;;;5061611;28;20044;-74
2023/07/27 00:18:40;;;;;;;3.40;1.30;;;;;;;;;;5060275;28;20052;-75
2023/07/27 00:21:10;;;;;;;3.58;1.45;;;;;;;;;;5061888;28;20069;-75
2023/07/27 00:23:41;;;;;;;1.80;1.05;;;;;;;;;;5061844;28;20515;-75
2023/07/27 00:26:13;;;;;;;6.88;1.27;;;;;;;;;;5061999;28;20075;-75
2023/07/27 00:28:43;;;;;;;1.98;1.17;;;;;;;;;;5060958;28;20621;-73
2023/07/27 00:31:14;;;;;;;2.38;0.90;;;;;;;;;;5060628;28;20495;-76
2023/07/27 00:33:45;;;;;;;3.50;1.10;;;;;;;;;;5060585;28;20067;-75
2023/07/27 00:36:18;;;;;;;2.28;1.00;;;;;;;;;;5062089;28;20057;-74
2023/07/27 00:38:48;;;;;;;1.55;0.95;;;;;;;;;;5064408;28;20052;-75
2023/07/27 00:41:19;;;;;;;1.17;0.95;;;;;;;;;;5079241;28;20052;-74
2023/07/27 00:43:49;;;;;;;1.42;1.00;;;;;;;;;;5084273;28;20048;-73
2023/07/27 00:46:20;;;;;;;5.70;2.67;;;;;;;;;;5080531;28;20044;-72
2023/07/27 00:48:53;;;;;;;3.10;2.05;;;;;;;;;;5069247;28;20056;-74
2023/07/27 00:51:23;;;;;;;4.40;2.20;;;;;;;;;;5063650;28;20055;-73
2023/07/27 00:53:54;;;;;;;4.75;2.00;;;;;;;;;;5064766;28;20044;-75
2023/07/27 00:56:24;;;;;;;3.25;2.30;;;;;;;;;;5065469;28;20047;-73
2023/07/27 00:58:59;;;;;;;4.63;2.47;;;;;;;;;;5065396;28;20051;-75
2023/07/27 01:01:30;;;;;;;3.10;2.03;;;;;;;;;;5066152;28;20044;-74
2023/07/27 01:04:00;;;;;;;3.15;2.00;;;;;;;;;;5065566;28;20044;-73
2023/07/27 01:06:31;;;;;;;3.25;1.92;;;;;;;;;;5064144;28;20036;-74
2023/07/27 01:09:02;;;;;;;4.65;1.50;;;;;;;;;;5064305;28;20045;-74
2023/07/27 01:11:48;;;;;;;4.63;1.42;;;;;;;;;;5062289;28;20398;-73
2023/07/27 01:14:38;;;;;;;3.10;1.60;;;;;;;;;;5062943;28;20040;-74
2023/07/27 01:17:28;;;;;;;3.97;1.25;;;;;;;;;;5062972;28;20055;-74
2023/07/27 01:20:06;;;;;;;1.67;0.90;;;;;;;;;;5062668;28;20040;-75
2023/07/27 01:22:57;;;;;;;3.72;1.20;;;;;;;;;;5062999;28;20036;-74
2023/07/27 01:26:12;;;;;;;2.30;1.30;;;;;;;;;;5064070;28;20059;-74
2023/07/27 01:28:45;;;;;;;1.38;0.93;;;;;;;;;;5062673;28;20057;-74
2023/07/27 01:31:26;;;;;;;1.98;1.10;;;;;;;;;;5062614;28;20400;-73
2023/07/27 01:34:03;;;;;;;1.27;0.90;;;;;;;;;;5064664;28;20055;-75
2023/07/27 01:36:38;;;;;;;1.13;0.80;;;;;;;;;;5064331;28;20077;-74
2023/07/27 01:39:11;;;;;;;3.10;1.00;;;;;;;;;;5064393;28;20040;-74
2023/07/27 01:41:43;;;;;;;1.48;1.00;;;;;;;;;;5063688;28;20369;-74
2023/07/27 01:44:15;;;;;;;1.23;0.82;;;;;;;;;;5061379;28;20048;-73
2023/07/27 01:46:47;;;;;;;1.13;0.80;;;;;;;;;;5063165;28;20048;-73
2023/07/27 01:49:19;;;;;;;1.42;0.93;;;;;;;;;;5060247;28;20052;-74
2023/07/27 01:51:51;;;;;;;2.58;0.80;;;;;;;;;;5063211;28;20048;-74
2023/07/27 01:54:23;;;;;;;2.20;0.80;;;;;;;;;;5058647;28;20048;-74
2023/07/27 01:56:58;;;;;;;1.50;0.90;;;;;;;;;;5062018;28;20514;-74
2023/07/27 01:59:30;;;;;;;2.35;0.90;;;;;;;;;;5063959;28;20057;-73
2023/07/27 02:02:02;;;;;;;9.75;1.30;;;;;;;;;;5061694;28;20533;-75
2023/07/27 02:04:35;;;;;;;2.35;1.10;;;;;;;;;;5061635;28;20065;-74
2023/07/27 02:07:06;;;;;;;1.13;0.85;;;;;;;;;;5061674;28;20751;-74
2023/07/27 02:09:37;;;;;;;2.38;0.88;;;;;;;;;;5061266;28;20719;-74
2023/07/27 02:12:16;;;;;;;2.65;0.95;;;;;;;;;;5063675;28;20040;-73
2023/07/27 02:14:56;;;;;;;1.92;1.05;;;;;;;;;;5063855;28;20048;-74
2023/07/27 02:17:41;;;;;;;2.35;1.00;;;;;;;;;;5061772;28;20047;-74
2023/07/27 02:20:16;;;;;;;3.45;1.02;;;;;;;;;;5062544;28;20064;-73
2023/07/27 02:22:48;;;;;;;2.33;1.35;;;;;;;;;;5063208;28;20044;-74
2023/07/27 02:25:21;;;;;;;3.22;1.05;;;;;;;;;;5062000;28;20060;-74
2023/07/27 02:27:51;;;;;;;4.90;1.75;;;;;;;;;;5062508;28;20526;-74
2023/07/27 02:30:23;;;;;;;2.60;1.35;;;;;;;;;;5062240;28;20053;-74
2023/07/27 02:32:54;;;;;;;3.03;1.35;;;;;;;;;;5061997;28;20048;-74
2023/07/27 02:35:25;;;;;;;2.70;1.48;;;;;;;;;;5045716;28;20075;-74
2023/07/27 02:37:56;;;;;;;3.55;1.08;;;;;;;;;;5060544;28;20052;-74
2023/07/27 02:40:29;;;;;;;3.47;1.42;;;;;;;;;;5060748;28;20052;-73
2023/07/27 02:43:00;;;;;;;2.10;1.10;;;;;;;;;;5061339;28;20056;-74
2023/07/27 02:45:35;;;;;;;2.42;1.20;;;;;;;;;;5062908;28;20391;-74
2023/07/27 02:48:06;;;;;;;2.42;1.08;;;;;;;;;;5061331;28;20502;-74
2023/07/27 02:50:36;;;;;;;2.75;1.30;;;;;;;;;;5061983;28;20044;-74
2023/07/27 02:53:11;;;;;;;3.67;1.20;;;;;;;;;;5060975;28;20514;-73
2023/07/27 02:55:58;;;;;;;2.10;1.00;;;;;;;;;;5061817;28;20059;-74
2023/07/27 02:58:32;;;;;;;4.22;1.20;;;;;;;;;;5061186;28;20048;-74
2023/07/27 03:01:03;;;;;;;6.20;1.20;;;;;;;;;;5060175;28;20052;-75
2023/07/27 03:03:34;;;;;;;1.83;1.00;;;;;;;;;;5061026;28;20060;-74
2023/07/27 03:06:08;;;;;;;4.70;1.10;;;;;;;;;;5061265;28;20538;-74
2023/07/27 03:08:45;;;;;;;1.23;1.00;;;;;;;;;;5060899;28;20052;-74
2023/07/27 03:11:16;;;;;;;2.28;1.00;;;;;;;;;;5061485;28;20045;-74
2023/07/27 03:13:47;;;;;;;2.03;1.10;;;;;;;;;;5060593;28;20045;-74
2023/07/27 03:16:18;;;;;;;1.00;0.80;;;;;;;;;;5061651;28;20100;-74
2023/07/27 03:18:51;;;;;;;2.22;1.00;;;;;;;;;;5060767;28;20052;-74
2023/07/27 03:21:21;;;;;;;1.42;1.15;;;;;;;;;;5061022;28;20065;-74
2023/07/27 03:23:53;;;;;;;1.65;1.05;;;;;;;;;;5060832;28;20060;-74
2023/07/27 03:26:24;;;;;;;3.08;1.02;;;;;;;;;;5044195;28;20412;-73
2023/07/27 03:28:54;;;;;;;2.75;1.33;;;;;;;;;;5060285;28;20057;-74
2023/07/27 03:31:26;;;;;;;1.85;1.10;;;;;;;;;;5060470;28;20048;-74
2023/07/27 03:33:58;;;;;;;3.17;1.30;;;;;;;;;;5059884;28;20060;-74
2023/07/27 03:36:29;;;;;;;2.10;1.10;;;;;;;;;;5060564;28;20056;-74
2023/07/27 03:39:01;;;;;;;1.63;1.15;;;;;;;;;;5062421;28;20044;-74
2023/07/27 03:41:31;;;;;;;3.00;1.13;;;;;;;;;;5060101;28;20052;-74
2023/07/27 03:44:02;;;;;;;2.25;1.10;;;;;;;;;;5062273;28;20044;-74
2023/07/27 03:46:33;;;;;;;3.17;1.08;;;;;;;;;;5044769;28;20048;-74
2023/07/27 03:49:05;;;;;;;2.00;1.23;;;;;;;;;;5060802;28;20515;-74
2023/07/27 03:51:35;;;;;;;5.85;1.73;;;;;;;;;;5061089;28;20056;-74
2023/07/27 03:54:06;;;;;;;3.58;1.73;;;;;;;;;;5063175;28;20564;-74
2023/07/27 03:56:38;;;;;;;2.97;1.52;;;;;;;;;;5061933;28;20049;-74
2023/07/27 03:59:09;;;;;;;4.10;1.33;;;;;;;;;;5060739;28;20052;-74
2023/07/27 04:01:39;;;;;;;3.03;1.67;;;;;;;;;;5059817;28;20059;-74
2023/07/27 04:04:11;;;;;;;3.00;1.60;;;;;;;;;;5062075;28;20048;-74
2023/07/27 04:06:42;;;;;;;4.30;1.65;;;;;;;;;;5059732;28;20393;-74
2023/07/27 04:09:12;;;;;;;3.95;1.20;;;;;;;;;;5060607;28;20059;-74
2023/07/27 04:11:43;;;;;;;3.13;1.67;;;;;;;;;;5064257;28;20059;-74
2023/07/27 04:14:13;;;;;;;3.92;1.80;;;;;;;;;;5065616;28;20052;-74
2023/07/27 04:16:45;;;;;;;2.50;1.70;;;;;;;;;;5063995;28;20522;-74
2023/07/27 04:19:21;;;;;;;4.13;1.88;;;;;;;;;;5065631;28;20078;-74
2023/07/27 04:21:51;;;;;;;5.07;1.95;;;;;;;;;;5065889;28;20071;-74
2023/07/27 04:24:22;;;;;;;5.35;1.80;;;;;;;;;;5065942;28;20048;-74
2023/07/27 04:26:52;;;;;;;3.30;2.00;;;;;;;;;;5064490;28;20059;-74
2023/07/27 04:29:23;;;;;;;2.60;1.80;;;;;;;;;;5063817;28;20052;-74
2023/07/27 04:31:53;;;;;;;3.90;1.67;;;;;;;;;;5063502;28;20432;-74
2023/07/27 04:34:24;;;;;;;9.27;2.08;;;;;;;;;;5065530;28;20052;-73
2023/07/27 04:36:54;;;;;;;2.38;1.55;;;;;;;;;;5065658;28;20495;-74
2023/07/27 04:39:26;;;;;;;3.40;1.80;;;;;;;;;;5064012;28;20063;-74
2023/07/27 04:41:57;;;;;;;2.40;1.25;;;;;;;;;;5066086;28;20063;-74
2023/07/27 04:44:28;;;;;;;3.78;1.65;;;;;;;;;;5063807;28;20522;-74
2023/07/27 04:46:59;;;;;;;3.00;1.73;;;;;;;;;;5065351;28;21265;-74
2023/07/27 04:49:31;;;;;;;2.00;1.60;;;;;;;;;;5064808;28;20060;-74
2023/07/27 04:52:01;;;;;;;1.80;1.38;;;;;;;;;;5063397;28;20045;-74
2023/07/27 04:54:31;;;;;;;2.90;1.67;;;;;;;;;;5065474;28;20399;-74
2023/07/27 04:57:01;;;;;;;3.15;1.60;;;;;;;;;;5064698;28;20438;-74
2023/07/27 04:59:32;;;;;;;2.67;1.73;;;;;;;;;;5065099;28;20056;-74
2023/07/27 05:02:03;;;;;;;3.05;1.70;;;;;;;;;;5064035;28;20052;-74
2023/07/27 05:04:33;;;;;;;2.58;1.60;;;;;;;;;;5077808;28;20052;-73
2023/07/27 05:07:06;;;;;;;5.43;1.75;;;;;;;;;;5090556;28;20045;-74
2023/07/27 05:09:38;;;;;;;2.92;1.70;;;;;;;;;;5087337;28;20052;-74
2023/07/27 05:12:09;;;;;;;3.15;1.42;;;;;;;;;;5067998;28;20107;-74
2023/07/27 05:14:40;;;;;;;5.13;1.48;;;;;;;;;;5065221;28;20045;-74
2023/07/27 05:17:10;;;;;;;3.13;1.42;;;;;;;;;;5064951;28;20059;-74
2023/07/27 05:19:41;;;;;;;2.17;1.52;;;;;;;;;;5064709;28;20064;-74
2023/07/27 05:22:12;;;;;;;5.80;1.38;;;;;;;;;;5063936;28;20534;-74
2023/07/27 05:24:43;;;;;;;1.77;1.17;;;;;;;;;;5062553;28;20142;-74
2023/07/27 05:27:13;;;;;;;2.08;1.52;;;;;;;;;;5064386;28;20588;-74
2023/07/27 05:29:44;;;;;;;2.58;1.40;;;;;;;;;;5063963;28;20041;-73
2023/07/27 05:32:15;;;;;;;2.70;1.45;;;;;;;;;;5064501;28;20048;-74
2023/07/27 05:34:47;;;;;;;2.00;1.20;;;;;;;;;;5064281;28;20051;-73
2023/07/27 05:37:17;;;;;;;2.70;1.50;;;;;;;;;;5063923;28;20055;-74
2023/07/27 05:39:47;;;;;;;2.67;1.70;;;;;;;;;;5063825;28;20044;-74
2023/07/27 05:42:19;;;;;;;2.80;1.65;;;;;;;;;;5064630;28;20044;-74
2023/07/27 05:44:49;;;;;;;4.00;1.50;;;;;;;;;;5063860;28;20045;-74
2023/07/27 05:47:19;;;;;;;3.60;1.88;;;;;;;;;;5064691;28;20048;-74
2023/07/27 05:49:50;;;;;;;2.50;1.70;;;;;;;;;;5064158;28;20048;-74
2023/07/27 05:52:21;;;;;;;4.30;2.05;;;;;;;;;;5063503;28;20055;-74
2023/07/27 05:54:51;;;;;;;4.55;1.80;;;;;;;;;;5062217;28;20059;-74
2023/07/27 05:57:22;;;;;;;3.42;1.83;;;;;;;;;;5063888;28;20056;-74
2023/07/27 05:59:53;;;;;;;3.15;1.70;;;;;;;;;;5064066;28;20055;-73
2023/07/27 06:02:35;;;;;;;3.35;1.55;;;;;;;;;;5064402;28;20048;-73
2023/07/27 06:05:06;;;;;;;4.75;1.77;;;;;;;;;;5063771;28;20040;-73
2023/07/27 06:07:37;;;;;;;3.03;1.85;;;;;;;;;;5063970;28;20067;-73
2023/07/27 06:10:08;;;;;;;2.90;1.83;;;;;;;;;;5063873;28;20115;-74
2023/07/27 06:12:38;;;;;;;5.63;1.75;;;;;;;;;;5063026;28;20048;-74
2023/07/27 06:15:10;;;;;;;5.60;1.88;;;;;;;;;;5063533;28;20063;-74
2023/07/27 06:17:41;;;;;;;2.85;1.60;;;;;;;;;;5063496;28;20052;-74
2023/07/27 06:20:11;;;;;;;2.38;1.42;;;;;;;;;;5063493;28;20048;-73
2023/07/27 06:22:42;;;;;;;4.40;1.90;;;;;;;;;;5064250;28;20052;-74
2023/07/27 06:25:12;;;;;;;2.38;1.60;;;;;;;;;;5045335;28;20063;-74
2023/07/27 06:27:44;;;;;;;3.38;1.83;;;;;;;;;;5063184;28;20052;-74
2023/07/27 06:30:15;;;;;;;5.03;1.73;;;;;;;;;;5063360;28;20055;-74
2023/07/27 06:32:45;;;;;;;5.55;1.75;;;;;;;;;;5063098;28;20049;-73
2023/07/27 06:35:16;;;;;;;2.83;1.80;;;;;;;;;;5062959;28;20048;-74
2023/07/27 06:37:46;;;;;;;6.22;1.90;;;;;;;;;;5063487;28;20055;-73
2023/07/27 06:40:17;;;;;;;4.40;2.20;;;;;;;;;;5063640;28;20044;-74
2023/07/27 06:42:47;;;;;;;3.70;1.92;;;;;;;;;;5063645;28;20052;-73
2023/07/27 06:45:18;;;;;;;6.93;1.80;;;;;;;;;;5062574;28;20051;-73
2023/07/27 06:47:48;;;;;;;4.70;2.00;;;;;;;;;;5063210;28;20616;-73
2023/07/27 06:50:19;;;;;;;4.32;2.00;;;;;;;;;;5062784;28;20053;-73
2023/07/27 06:52:49;;;;;;;3.47;2.13;;;;;;;;;;5062312;28;20044;-73
2023/07/27 06:55:21;;;;;;;3.25;2.35;;;;;;;;;;5062862;28;20060;-73
2023/07/27 06:57:55;;;;;;;3.90;2.60;;;;;;;;;;5062255;28;20059;-73
2023/07/27 07:00:26;;;;;;;3.35;2.20;;;;;;;;;;5062676;28;20052;-74
2023/07/27 07:02:56;;;;;;;6.28;2.35;;;;;;;;;;5062581;28;20052;-73
2023/07/27 07:05:28;;;;;;;4.38;2.20;;;;;;;;;;5063168;28;20060;-73
2023/07/27 07:07:59;;;;;;;5.45;2.50;;;;;;;;;;5062751;28;20059;-74
2023/07/27 07:10:30;;;;;;;3.95;2.17;;;;;;;;;;5063242;28;20525;-73
2023/07/27 07:12:59;;;;;;;;;;;;;;;;;;5063608;28;20044;-75
2023/07/27 07:15:29;;;;;;;4.65;2.40;;;;;;;;;;5062473;28;19927;-73
2023/07/27 07:18:00;;;;;;;6.63;2.78;;;;;;;;;;5062433;28;20527;-73
2023/07/27 07:20:32;;;;;;;5.40;2.83;;;;;;;;;;5061156;28;20515;-73
2023/07/27 07:23:02;;;;;;;4.38;3.03;;;;;;;;;;5062385;28;20052;-74
2023/07/27 07:25:32;;;;;;;;;;;;;;;;;;5062750;28;20609;-73
2023/07/27 07:28:03;;;;;;;6.60;2.92;;;;;;;;;;5062818;28;19925;-74
2023/07/27 07:30:38;;;;;;;3.97;2.67;;;;;;;;;;5062008;28;20052;-74
2023/07/27 07:33:09;;;;;;;4.18;3.08;;;;;;;;;;5062669;28;20040;-74
2023/07/27 07:35:39;;;;;;;6.63;2.85;;;;;;;;;;5061654;28;20138;-74
2023/07/27 07:38:09;;;;;;;5.05;2.67;;;;;;;;;;5061516;28;20048;-74
2023/07/27 07:40:39;;;;;;;;;;;;;;;;;;5062593;28;20040;-74
2023/07/27 07:43:10;;;;;;;5.38;2.25;;;;;;;;;;5060271;28;19936;-73
2023/07/27 07:45:42;;;;;;;4.05;2.13;;;;;;;;;;5061326;28;20076;-73
2023/07/27 07:48:12;;;;;;;5.72;2.65;;;;;;;;;;5060636;28;20041;-74
2023/07/27 07:50:42;;;;;;;4.07;2.60;;;;;;;;;;5061505;28;20447;-74
2023/07/27 07:53:13;;;;;;;5.57;2.22;;;;;;;;;;5062135;28;20059;-74
2023/07/27 07:55:54;;;;;;;4.55;2.45;;;;;;;;;;5062157;28;20045;-74
2023/07/27 07:58:25;;;;;;;4.18;2.47;;;;;;;;;;5062744;28;20056;-73
2023/07/27 08:00:56;;;;;;;3.67;2.72;;;;;;;;;;5062903;28;20048;-73
2023/07/27 08:03:25;;;;;;;;;;;;;;;;;;5062646;28;20056;-74
2023/07/27 08:05:57;;;;;;;4.95;2.58;;;;;;;;;;5061627;28;19924;-73
2023/07/27 08:08:30;;;;;;;4.03;2.42;;;;;;;;;;5062036;28;20507;-73
2023/07/27 08:11:04;;;;;;;7.75;2.85;;;;;;;;;;5062238;28;20047;-74
2023/07/27 08:13:35;;;;;;;4.53;2.05;;;;;;;;;;5061716;28;20411;-73
2023/07/27 08:16:05;;;;;;;6.05;2.60;;;;;;;;;;5062785;28;20048;-74
2023/07/27 08:18:37;;;;;;;4.78;2.35;;;;;;;;;;5062073;28;20079;-73
2023/07/27 08:21:10;;;;;;;6.50;2.75;;;;;;;;;;5059712;28;20068;-73
2023/07/27 08:23:41;;;;;;;4.32;2.28;;;;;;;;;;5060947;28;20053;-74
2023/07/27 08:26:11;;;;;;;;;;;;;;;;;;5062004;28;20529;-74
2023/07/27 08:28:42;;;;;;;5.68;2.17;;;;;;;;;;5062532;28;19924;-73
2023/07/27 08:31:12;;;;;;;4.22;2.33;;;;;;;;;;5061914;28;20048;-74
2023/07/27 08:33:42;;;;;;;3.67;2.50;;;;;;;;;;5060589;28;20435;-73
2023/07/27 08:36:14;;;;;;;6.13;2.60;;;;;;;;;;5061418;28;20423;-74
2023/07/27 08:38:45;;;;;;;6.95;2.65;;;;;;;;;;5061515;28;20122;-72
2023/07/27 08:41:16;;;;;;;5.60;2.47;;;;;;;;;;5062603;28;20051;-73
2023/07/27 08:43:47;;;;;;;5.55;2.63;;;;;;;;;;5061675;28;20055;-74
2023/07/27 08:46:19;;;;;;;6.13;2.53;;;;;;;;;;5061616;28;20063;-73
2023/07/27 08:48:53;;;;;;;4.30;1.90;;;;;;;;;;5061044;28;20041;-74
2023/07/27 08:51:23;;;;;;;6.10;2.45;;;;;;;;;;5061760;28;20045;-75
2023/07/27 08:53:53;;;;;;;4.20;2.15;;;;;;;;;;5061897;28;20040;-75
2023/07/27 08:56:24;;;;;;;5.30;2.13;;;;;;;;;;5062529;28;20049;-72
2023/07/27 08:58:56;;;;;;;5.88;1.90;;;;;;;;;;5064558;28;20056;-72
2023/07/27 09:01:27;;;;;;;3.33;2.05;;;;;;;;;;5065501;28;20052;-75
2023/07/27 09:03:57;;;;;;;4.88;1.73;;;;;;;;;;5065859;28;20521;-75
2023/07/27 09:06:44;;;;;;;4.72;2.13;;;;;;;;;;5065180;28;20498;-75
2023/07/27 09:09:24;;;;;;;3.15;1.73;;;;;;;;;;5064807;28;20049;-73
2023/07/27 09:11:55;;;;;;;3.90;1.85;;;;;;;;;;5064523;28;20044;-74
2023/07/27 09:14:25;;;;;;;5.68;1.90;;;;;;;;;;5064791;28;20041;-75
2023/07/27 09:16:56;;;;;;;;;;;;;;;;;;5065867;28;20040;-76
2023/07/27 09:19:32;;;;;;;4.45;2.17;;;;;;;;;;5064798;28;19932;-75
2023/07/27 09:22:04;;;;;;;;;;;;;;;;;;5065801;28;20414;-73
2023/07/27 09:24:36;;;;;;;2.85;1.80;;;;;;;;;;5066242;28;20513;-73
2023/07/27 09:27:15;;;;;;;3.05;1.73;;;;;;;;;;5086341;28;20040;-73
2023/07/27 09:29:46;;;;;;;3.08;1.80;;;;;;;;;;5087538;28;20047;-74
2023/07/27 09:32:16;;;;;;;3.08;2.08;;;;;;;;;;5072384;28;20044;-73
2023/07/27 09:34:57;;;;;;;4.45;2.10;;;;;;;;;;5066399;28;20055;-73
2023/07/27 09:37:29;;;;;;;3.17;1.80;;;;;;;;;;5065281;28;20476;-74
2023/07/27 09:40:13;;;;;;;5.05;2.33;;;;;;;;;;5063198;28;20064;-74
2023/07/27 09:42:44;;;;;;;6.85;2.33;;;;;;;;;;5063176;28;20049;-73
2023/07/27 09:45:15;;;;;;;3.88;1.88;;;;;;;;;;5064135;28;20053;-78
2023/07/27 09:47:46;;;;;;;3.90;2.15;;;;;;;;;;5064287;28;20044;-75
2023/07/27 09:50:19;;;;;;;5.55;2.17;;;;;;;;;;5064869;28;20055;-73
2023/07/27 09:52:50;;;;;;;4.32;2.42;;;;;;;;;;5062787;28;20044;-74
2023/07/27 09:55:22;;;;;;;4.65;2.85;;;;;;;;;;5064486;28;20048;-73
2023/07/27 09:57:53;;;;;;;4.63;2.67;;;;;;;;;;5063749;28;20055;-75
2023/07/27 10:00:23;;;;;;;9.23;2.35;;;;;;;;;;5064166;28;20089;-74
2023/07/27 10:02:54;;;;;;;3.30;2.33;;;;;;;;;;5063265;28;20053;-73
2023/07/27 10:05:41;;;;;;;4.50;2.25;;;;;;;;;;5063925;28;20613;-74
2023/07/27 10:08:13;;;;;;;4.68;2.65;;;;;;;;;;5063451;28;20059;-74
2023/07/27 10:10:44;;;;;;;3.97;2.30;;;;;;;;;;5064284;28;20045;-73
2023/07/27 10:13:24;;;;;;;6.13;2.63;;;;;;;;;;5063901;28;20055;-74
2023/07/27 10:15:56;;;;;;;3.80;2.35;;;;;;;;;;5063896;28;20044;-74
2023/07/27 10:18:28;;;;;;;4.15;2.33;;;;;;;;;;5063913;28;20067;-75
2023/07/27 10:21:24;;;;;;;6.65;2.83;;;;;;;;;;5063487;28;20159;-74
2023/07/27 10:24:03;;;;;;;3.08;2.17;;;;;;;;;;5063280;28;20051;-74
2023/07/27 10:26:47;;;;;;;4.00;2.47;;;;;;;;;;5064095;28;20048;-74
2023/07/27 10:29:22;;;;;;;4.65;2.33;;;;;;;;;;5063684;28;20503;-74
2023/07/27 10:32:05;;;;;;;6.65;2.20;;;;;;;;;;5063682;28;20052;-74
2023/07/27 10:34:38;;;;;;;3.38;1.80;;;;;;;;;;5061099;28;20060;-75
2023/07/27 10:37:14;;;;;;;4.28;2.38;;;;;;;;;;5061861;28;20388;-74
2023/07/27 10:39:47;;;;;;;5.18;2.53;;;;;;;;;;5063682;28;20051;-73
2023/07/27 10:42:24;;;;;;;5.22;2.70;;;;;;;;;;5063990;28;20060;-74
2023/07/27 10:44:57;;;;;;;3.97;2.42;;;;;;;;;;5063708;28;20051;-75
2023/07/27 10:47:37;;;;;;;5.90;2.72;;;;;;;;;;5063272;28;20048;-74
2023/07/27 10:50:09;;;;;;;3.95;2.75;;;;;;;;;;5061134;28;20063;-74
2023/07/27 10:52:42;;;;;;;5.63;3.33;;;;;;;;;;5062712;28;20063;-74
2023/07/27 10:55:14;;;;;;;9.30;3.63;;;;;;;;;;5063004;28;20055;-74
2023/07/27 10:57:46;;;;;;;12.75;5.03;;;;;;;;;;5063186;28;20059;-74
2023/07/27 11:00:17;;;;;;;5.78;3.63;;;;;;;;;;5062408;28;20418;-74
2023/07/27 11:02:48;;;;;;;7.28;3.80;;;;;;;;;;5062751;28;20059;-73
2023/07/27 11:05:20;;;;;;;7.30;4.30;;;;;;;;;;5062646;28;20385;-73
2023/07/27 11:07:50;;;;;;;5.93;3.70;;;;;;;;;;5062619;28;20040;-74
2023/07/27 11:10:32;;;;;;;7.20;3.10;;;;;;;;;;5062614;28;20040;-74
2023/07/27 11:13:04;;;;;;;6.22;2.85;;;;;;;;;;5063617;28;20395;-74
2023/07/27 11:15:35;;;;;;;7.00;2.63;;;;;;;;;;5062939;28;20056;-74
2023/07/27 11:18:06;;;;;;;3.65;2.28;;;;;;;;;;5062993;28;20048;-73
2023/07/27 11:20:36;;;;;;;8.40;2.72;;;;;;;;;;5061919;28;20056;-73
2023/07/27 11:23:08;;;;;;;4.50;2.70;;;;;;;;;;5062248;28;20064;-74
2023/07/27 11:25:40;;;;;;;9.35;2.70;;;;;;;;;;5063351;28;20064;-73
2023/07/27 11:28:10;;;;;;;5.03;2.70;;;;;;;;;;5062786;28;20044;-75
2023/07/27 11:30:41;;;;;;;3.72;2.35;;;;;;;;;;5061937;28;20399;-75
2023/07/27 11:33:12;;;;;;;4.07;2.40;;;;;;;;;;5062000;28;20403;-74
2023/07/27 11:35:49;;;;;;;3.10;2.00;;;;;;;;;;5062162;28;20048;-74
2023/07/27 11:38:20;;;;;;;3.05;2.15;;;;;;;;;;5062485;28;20054;-74
2023/07/27 11:40:50;;;;;;;6.25;3.08;;;;;;;;;;5062320;28;20062;-74
2023/07/27 11:43:28;;;;;;;9.13;3.30;;;;;;;;;;5062707;28;20052;-74
2023/07/27 11:46:01;;;;;;;4.43;3.05;;;;;;;;;;5062189;28;20048;-74
2023/07/27 11:48:35;;;;;;;15.15;3.70;;;;;;;;;;5062804;28;20051;-74
2023/07/27 11:51:06;;;;;;;4.82;3.13;;;;;;;;;;5060793;28;20044;-73
2023/07/27 11:53:36;;;;;;;5.50;2.97;;;;;;;;;;5062656;28;20483;-73
2023/07/27 11:56:12;;;;;;;8.23;3.60;;;;;;;;;;5061908;28;20554;-75
2023/07/27 11:58:43;;;;;;;4.88;3.05;;;;;;;;;;5062910;28;20071;-73
2023/07/27 12:01:15;;;;;;;10.63;3.35;;;;;;;;;;5062211;28;20060;-73
2023/07/27 12:03:46;;;;;;;6.53;2.83;;;;;;;;;;5062122;28;20045;-73
2023/07/27 12:06:23;;;;;;;6.30;2.95;;;;;;;;;;5062103;28;20044;-75
2023/07/27 12:08:56;;;;;;;5.53;2.67;;;;;;;;;;5062246;28;20064;-74
2023/07/27 12:11:29;;;;;;;5.20;2.40;;;;;;;;;;5062122;28;20053;-73
2023/07/27 12:14:09;;;;;;;5.60;2.97;;;;;;;;;;5061939;28;20045;-74
2023/07/27 12:16:44;;;;;;;2.42;2.00;;;;;;;;;;5061533;28;20076;-72
2023/07/27 12:19:19;;;;;;;3.35;1.98;;;;;;;;;;5061697;28;20041;-73
2023/07/27 12:21:58;;;;;;;7.30;1.90;;;;;;;;;;5062094;28;20054;-73
2023/07/27 12:24:49;;;;;;;13.30;2.03;;;;;;;;;;5061597;28;20044;-73
2023/07/27 12:27:19;;;;;;;1.80;1.50;;;;;;;;;;5061481;28;20052;-73
2023/07/27 12:29:51;;;;;;;8.70;1.83;;;;;;;;;;5060013;28;20044;-73
2023/07/27 12:32:21;;;;;;;2.60;1.90;;;;;;;;;;5063875;28;20419;-73
2023/07/27 12:34:51;;;;;;;7.22;2.15;;;;;;;;;;5065820;28;20071;-72
2023/07/27 12:37:24;;;;;;;11.65;2.53;;;;;;;;;;5066005;28;20041;-77
2023/07/27 12:39:58;;;;;;;5.45;2.10;;;;;;;;;;5066411;28;20598;-72
2023/07/27 12:42:32;;;;;;;12.10;6.28;;;;;;;;;;5067218;28;20059;-72
2023/07/27 12:45:04;;;;;;;8.70;2.75;;;;;;;;;;5067639;28;20044;-73
2023/07/27 12:47:35;;;;;;;3.85;2.55;;;;;;;;;;5064320;28;20510;-73
2023/07/27 12:50:07;;;;;;;5.43;2.70;;;;;;;;;;5065099;28;20051;-73
2023/07/27 12:52:41;;;;;;;5.97;2.58;;;;;;;;;;5063625;28;20055;-72
2023/07/27 12:55:15;;;;;;;8.23;2.50;;;;;;;;;;5065718;28;20044;-73
2023/07/27 12:57:46;;;;;;;3.53;1.88;;;;;;;;;;5064735;28;20597;-73
2023/07/27 13:00:24;;;;;;;6.20;2.70;;;;;;;;;;5064243;28;20063;-73
2023/07/27 13:02:56;;;;;;;3.63;2.50;;;;;;;;;;5064489;28;20052;-73
2023/07/27 13:05:26;;;;;;;5.28;2.92;;;;;;;;;;5064945;28;20495;-74
2023/07/27 13:07:56;;;;;;;3.97;2.42;;;;;;;;;;5065152;28;20487;-74
2023/07/27 13:10:27;;;;;;;4.78;2.40;;;;;;;;;;5062967;28;20541;-73
2023/07/27 13:12:59;;;;;;;5.53;2.40;;;;;;;;;;5064549;28;20427;-73
2023/07/27 13:15:29;;;;;;;5.40;2.40;;;;;;;;;;5064796;28;20059;-74
2023/07/27 13:18:03;;;;;;;5.25;2.17;;;;;;;;;;5063620;28;20538;-73
2023/07/27 13:20:36;;;;;;;4.97;2.13;;;;;;;;;;5064358;28;20063;-74
2023/07/27 13:23:08;;;;;;;3.55;1.90;;;;;;;;;;5064944;28;20048;-73
2023/07/27 13:25:38;;;;;;;5.28;2.33;;;;;;;;;;5064281;28;20055;-73
2023/07/27 13:28:09;;;;;;;7.93;2.50;;;;;;;;;;5064333;28;20056;-74
2023/07/27 13:30:40;;;;;;;3.42;2.15;;;;;;;;;;5064889;28;20048;-73
2023/07/27 13:33:12;;;;;;;4.78;1.88;;;;;;;;;;5063106;28;20063;-74
2023/07/27 13:35:42;;;;;;;3.05;1.75;;;;;;;;;;5064560;28;20418;-73
2023/07/27 13:38:14;;;;;;;3.17;1.55;;;;;;;;;;5064415;28;20069;-73
2023/07/27 13:40:48;;;;;;;5.18;2.00;;;;;;;;;;5075012;28;20040;-73
2023/07/27 13:43:18;;;;;;;2.33;1.40;;;;;;;;;;5087162;28;20048;-73
2023/07/27 13:45:48;;;;;;;7.30;2.13;;;;;;;;;;5078546;28;20052;-73
2023/07/27 13:48:18;;;;;;;3.28;1.50;;;;;;;;;;5064831;28;20059;-75
2023/07/27 13:50:54;;;;;;;2.60;1.42;;;;;;;;;;5063145;28;20056;-74
2023/07/27 13:53:24;;;;;;;1.90;1.20;;;;;;;;;;5064065;28;20044;-73
2023/07/27 13:55:54;;;;;;;3.45;1.63;;;;;;;;;;5063377;28;20044;-74
2023/07/27 13:58:25;;;;;;;2.50;1.70;;;;;;;;;;5063683;28;20531;-74
2023/07/27 14:00:57;;;;;;;2.05;1.20;;;;;;;;;;5062543;28;20419;-74
2023/07/27 14:03:28;;;;;;;1.83;1.15;;;;;;;;;;5064578;28;20413;-74
2023/07/27 14:05:58;;;;;;;3.58;1.35;;;;;;;;;;5063152;28;20049;-74
2023/07/27 14:08:30;;;;;;;2.00;1.20;;;;;;;;;;5063587;28;20052;-74
2023/07/27 14:11:01;;;;;;;1.63;1.10;;;;;;;;;;5063375;28;20048;-75
2023/07/27 14:13:32;;;;;;;1.65;1.40;;;;;;;;;;5064076;28;20044;-75
2023/07/27 14:16:05;;;;;;;10.52;8.38;;;;;;;;;;5063194;28;20084;-74
2023/07/27 14:18:35;;;;;;;3.83;1.48;;;;;;;;;;5064213;28;20048;-75
2023/07/27 14:21:06;;;;;;;4.30;1.40;;;;;;;;;;5063473;28;20044;-74
2023/07/27 14:23:36;;;;;;;4.05;1.50;;;;;;;;;;5063883;28;20045;-75
2023/07/27 14:26:07;;;;;;;6.00;1.42;;;;;;;;;;5063893;28;20613;-75
2023/07/27 14:28:40;;;;;;;2.38;1.27;;;;;;;;;;5063817;28;20047;-75
2023/07/27 14:31:11;;;;;;;2.05;1.40;;;;;;;;;;5062467;28;20036;-76
2023/07/27 14:33:43;;;;;;;1.88;1.42;;;;;;;;;;5063911;28;20426;-75
2023/07/27 14:36:13;;;;;;;8.15;1.60;;;;;;;;;;5063352;28;20063;-74
2023/07/27 14:38:43;;;;;;;7.82;1.75;;;;;;;;;;5063288;28;20045;-74
2023/07/27 14:41:14;;;;;;;7.35;1.27;;;;;;;;;;5061862;28;20063;-74
2023/07/27 14:43:45;;;;;;;3.40;1.20;;;;;;;;;;5063627;28;20056;-74
2023/07/27 14:46:16;;;;;;;1.70;1.10;;;;;;;;;;5063386;28;20037;-75
2023/07/27 14:48:46;;;;;;;1.10;1.00;;;;;;;;;;5063232;28;20052;-75
2023/07/27 14:51:18;;;;;;;1.88;1.13;;;;;;;;;;5062869;28;20051;-74
2023/07/27 14:53:49;;;;;;;2.30;1.20;;;;;;;;;;5063091;28;20051;-75
2023/07/27 14:56:23;;;;;;;2.45;1.00;;;;;;;;;;5063036;28;20049;-74
2023/07/27 14:58:53;;;;;;;6.05;1.23;;;;;;;;;;5063632;28;20044;-74
2023/07/27 15:01:34;;;;;;;4.40;1.25;;;;;;;;;;5063299;28;20059;-74
2023/07/27 15:04:19;;;;;;;6.35;1.73;;;;;;;;;;5063202;28;20045;-74
2023/07/27 15:06:54;;;;;;;1.00;0.93;;;;;;;;;;5062817;28;20507;-74
2023/07/27 15:09:24;;;;;;;1.98;1.17;;;;;;;;;;5061669;28;20052;-74
2023/07/27 15:11:54;;;;;;;2.97;1.10;;;;;;;;;;5062642;28;20055;-75
2023/07/27 15:14:24;;;;;;;2.25;1.20;;;;;;;;;;5062474;28;20045;-75
2023/07/27 15:16:56;;;;;;;2.33;1.17;;;;;;;;;;5063463;28;20052;-75